createdAt,value
2023-01-02T00:00:41.592Z,10.94
2023-01-02T00:03:09.715Z,11.16
2023-01-02T00:05:38.133Z,11.23
2023-01-02T00:08:06.490Z,11.57
2023-01-02T00:10:34.471Z,11.52
2023-01-02T00:13:03.844Z,11.42
2023-01-02T00:15:32.826Z,11.44
2023-01-02T00:18:00.913Z,11.79
2023-01-02T00:20:28.908Z,12.09
2023-01-02T00:22:57.212Z,12.03
2023-01-02T00:25:25.407Z,12.54
2023-01-02T00:27:55.878Z,12.51
2023-01-02T00:30:25.237Z,12.59
2023-01-02T00:32:53.305Z,12.90
2023-01-02T00:35:21.292Z,12.88
2023-01-02T00:37:52.660Z,12.97
2023-01-02T00:40:23.052Z,12.78
2023-01-02T00:42:51.141Z,12.65
2023-01-02T00:45:19.324Z,12.01
2023-01-02T00:47:49.091Z,12.15
2023-01-02T00:50:17.186Z,11.86
2023-01-02T00:52:45.196Z,12.04
2023-01-02T00:55:13.243Z,11.98
2023-01-02T00:57:41.323Z,11.99
2023-01-02T01:00:09.895Z,12.00
2023-01-02T01:02:38.026Z,11.80
2023-01-02T01:05:08.500Z,11.87
2023-01-02T01:07:36.559Z,11.34
2023-01-02T01:10:04.824Z,11.40
2023-01-02T01:12:32.881Z,11.37
2023-01-02T01:15:00.918Z,11.74
2023-01-02T01:17:28.941Z,11.89
2023-01-02T01:19:56.905Z,11.47
2023-01-02T01:22:26.590Z,11.82
2023-01-02T01:24:54.636Z,11.94
2023-01-02T01:27:22.790Z,12.16
2023-01-02T01:29:51.257Z,12.22
2023-01-02T01:32:19.309Z,12.41
2023-01-02T01:34:47.638Z,12.44
2023-01-02T01:37:15.657Z,12.44
2023-01-02T01:39:45.005Z,12.67
2023-01-02T01:42:13.701Z,12.71
2023-01-02T01:44:42.666Z,12.83
2023-01-02T01:47:16.969Z,13.03
2023-01-02T01:49:45.760Z,13.14
2023-01-02T01:52:16.065Z,13.24
2023-01-02T01:54:47.812Z,13.32
2023-01-02T01:57:17.759Z,13.10
2023-01-02T01:59:46.312Z,13.10
2023-01-02T02:02:14.856Z,13.29
2023-01-02T02:04:43.838Z,13.09
2023-01-02T02:07:12.470Z,13.20
2023-01-02T02:09:45.427Z,12.92
2023-01-02T02:12:19.001Z,12.86
2023-01-02T02:14:48.751Z,12.92
2023-01-02T02:17:22.683Z,13.01
2023-01-02T02:20:04.226Z,13.16
2023-01-02T02:22:53.720Z,13.00
2023-01-02T02:25:45.836Z,13.15
2023-01-02T02:28:31.535Z,12.87
2023-01-02T02:31:04.564Z,13.00
2023-01-02T02:33:39.870Z,13.11
2023-01-02T02:36:12.285Z,12.72
2023-01-02T02:38:52.199Z,12.89
2023-01-02T02:41:26.468Z,12.87
2023-01-02T02:44:01.358Z,13.04
2023-01-02T02:46:33.419Z,12.95
2023-01-02T02:49:08.829Z,12.78
2023-01-02T02:51:39.368Z,12.73
2023-01-02T02:54:10.503Z,12.78
2023-01-02T02:56:38.990Z,12.81
2023-01-02T02:59:07.179Z,12.93
2023-01-02T03:01:36.918Z,13.07
2023-01-02T03:04:10.017Z,12.73
2023-01-02T03:06:46.470Z,12.82
2023-01-02T03:09:19.388Z,12.94
2023-01-02T03:11:55.130Z,13.00
2023-01-02T03:14:31.070Z,12.83
2023-01-02T03:17:02.906Z,12.74
2023-01-02T03:19:36.665Z,12.77
2023-01-02T03:22:07.578Z,12.84
2023-01-02T03:24:36.769Z,12.59
2023-01-02T03:27:07.531Z,12.69
2023-01-02T03:29:40.321Z,12.67
2023-01-02T03:32:12.485Z,12.51
2023-01-02T03:34:42.235Z,12.91
2023-01-02T03:37:12.628Z,12.76
2023-01-02T03:39:44.037Z,12.86
2023-01-02T03:42:13.710Z,12.77
2023-01-02T03:44:45.277Z,12.74
2023-01-02T03:47:22.169Z,12.60
2023-01-02T03:49:53.265Z,12.55
2023-01-02T03:52:26.148Z,12.76
2023-01-02T03:54:54.709Z,12.70
2023-01-02T03:57:27.237Z,12.81
2023-01-02T03:59:58.525Z,12.74
2023-01-02T04:02:32.967Z,12.72
2023-01-02T04:05:05.676Z,12.70
2023-01-02T04:07:35.665Z,12.83
2023-01-02T04:10:05.197Z,12.54
2023-01-02T04:12:34.651Z,12.62
2023-01-02T04:15:04.624Z,12.70
2023-01-02T04:17:37.910Z,12.78
2023-01-02T04:20:10.855Z,12.88
2023-01-02T04:22:42.589Z,12.67
2023-01-02T04:25:13.575Z,12.67
2023-01-02T04:27:44.020Z,12.94
2023-01-02T04:30:12.429Z,12.93
2023-01-02T04:32:42.590Z,12.89
2023-01-02T04:35:11.807Z,13.18
2023-01-02T04:37:41.454Z,13.22
2023-01-02T04:40:12.126Z,13.03
2023-01-02T04:42:40.354Z,13.18
2023-01-02T04:45:08.965Z,13.10
2023-01-02T04:47:37.062Z,13.03
2023-01-02T04:50:09.728Z,12.99
2023-01-02T04:52:37.882Z,12.96
2023-01-02T04:55:08.171Z,13.02
2023-01-02T04:57:36.439Z,13.18
2023-01-02T05:00:05.373Z,13.08
2023-01-02T05:02:35.351Z,12.78
2023-01-02T05:05:03.407Z,12.85
2023-01-02T05:07:33.614Z,12.79
2023-01-02T05:10:03.771Z,12.88
2023-01-02T05:15:19.876Z,12.60
2023-01-02T05:17:47.859Z,12.50
2023-01-02T05:20:15.930Z,12.71
2023-01-02T05:23:02.727Z,12.56
2023-01-02T05:25:32.871Z,12.77
2023-01-02T05:28:03.545Z,12.68
2023-01-02T05:30:31.662Z,12.69
2023-01-02T05:32:59.697Z,12.34
2023-01-02T05:35:32.386Z,12.33
2023-01-02T05:38:03.018Z,12.15
2023-01-02T05:40:31.123Z,11.97
2023-01-02T05:42:59.932Z,12.24
2023-01-02T05:45:30.555Z,12.36
2023-01-02T05:47:58.604Z,12.11
2023-01-02T05:50:26.597Z,12.35
2023-01-02T05:52:56.122Z,12.09
2023-01-02T05:55:25.454Z,12.08
2023-01-02T05:57:55.093Z,12.13
2023-01-02T06:00:25.747Z,12.38
2023-01-02T06:02:54.577Z,12.50
2023-01-02T06:05:22.772Z,12.22
2023-01-02T06:07:50.818Z,12.30
2023-01-02T06:10:18.819Z,12.41
2023-01-02T06:12:48.825Z,12.22
2023-01-02T06:15:16.906Z,12.09
2023-01-02T06:17:44.875Z,12.07
2023-01-02T06:20:12.843Z,12.30
2023-01-02T06:22:43.220Z,12.45
2023-01-02T06:25:11.275Z,12.54
2023-01-02T06:27:39.307Z,12.36
2023-01-02T06:30:09.746Z,12.46
2023-01-02T06:32:37.727Z,12.19
2023-01-02T06:35:06.577Z,12.24
2023-01-02T06:37:34.706Z,11.91
2023-01-02T06:40:02.727Z,12.03
2023-01-02T06:42:31.397Z,12.25
2023-01-02T06:45:01.034Z,12.37
2023-01-02T06:47:30.395Z,11.95
2023-01-02T06:49:58.473Z,12.06
2023-01-02T06:52:28.867Z,11.75
2023-01-02T06:54:56.972Z,11.74
2023-01-02T06:57:25.009Z,11.71
2023-01-02T06:59:53.044Z,11.51
2023-01-02T07:02:21.223Z,11.45
2023-01-02T07:04:50.662Z,11.52
2023-01-02T07:07:18.650Z,11.57
2023-01-02T07:09:46.652Z,11.71
2023-01-02T07:12:14.677Z,11.51
2023-01-02T07:14:42.641Z,11.35
2023-01-02T07:17:10.699Z,11.42
2023-01-02T07:19:38.759Z,11.09
2023-01-02T07:22:08.073Z,11.38
2023-01-02T07:24:38.873Z,11.64
2023-01-02T07:27:06.962Z,11.53
2023-01-02T07:29:34.909Z,11.23
2023-01-02T07:32:03.031Z,11.35
2023-01-02T07:34:31.088Z,11.53
2023-01-02T07:36:59.138Z,11.30
2023-01-02T07:39:28.473Z,11.54
2023-01-02T07:41:56.474Z,11.57
2023-01-02T07:44:24.559Z,11.17
2023-01-02T07:46:52.577Z,11.33
2023-01-02T07:49:20.570Z,11.21
2023-01-02T07:51:48.572Z,11.48
2023-01-02T07:54:18.796Z,11.53
2023-01-02T07:56:48.147Z,11.19
2023-01-02T07:59:16.179Z,11.53
2023-01-02T08:01:44.341Z,11.32
2023-01-02T08:04:12.610Z,11.52
2023-01-02T08:06:41.452Z,11.77
2023-01-02T08:09:09.566Z,11.81
2023-01-02T08:11:37.612Z,11.83
2023-01-02T08:14:07.025Z,12.09
2023-01-02T08:16:35.064Z,12.13
2023-01-02T08:19:03.201Z,12.15
2023-01-02T08:21:31.268Z,12.19
2023-01-02T08:23:59.343Z,12.07
2023-01-02T08:26:27.411Z,12.50
2023-01-02T08:28:55.449Z,11.80
2023-01-02T08:31:24.934Z,11.64
2023-01-02T08:33:53.028Z,11.76
2023-01-02T08:36:23.331Z,12.01
2023-01-02T08:38:51.307Z,11.52
2023-01-02T08:41:31.057Z,11.45
2023-01-02T08:43:59.106Z,11.79
2023-01-02T08:46:28.949Z,11.69
2023-01-02T08:48:57.035Z,11.90
2023-01-02T08:51:26.168Z,12.32
2023-01-02T08:53:54.322Z,12.05
2023-01-02T08:56:23.441Z,11.82
2023-01-02T08:58:52.782Z,11.86
2023-01-02T09:01:21.875Z,11.94
2023-01-02T09:03:52.096Z,12.25
2023-01-02T09:06:22.356Z,12.22
2023-01-02T09:08:52.152Z,12.30
2023-01-02T09:11:21.978Z,12.53
2023-01-02T09:13:50.048Z,12.86
2023-01-02T09:16:18.213Z,12.70
2023-01-02T09:18:46.298Z,13.14
2023-01-02T09:21:16.222Z,13.37
2023-01-02T09:23:44.315Z,13.64
2023-01-02T09:26:12.914Z,13.81
2023-01-02T09:28:40.982Z,13.96
2023-01-02T09:31:12.338Z,13.93
2023-01-02T09:33:44.409Z,14.07
2023-01-02T09:36:13.377Z,13.43
2023-01-02T09:38:45.318Z,13.33
2023-01-02T09:41:22.980Z,12.25
2023-01-02T09:43:53.152Z,12.33
2023-01-02T09:46:26.340Z,12.74
2023-01-02T09:48:54.408Z,12.92
2023-01-02T09:51:22.555Z,12.48
2023-01-02T09:53:51.904Z,12.89
2023-01-02T09:56:23.031Z,13.14
2023-01-02T09:58:56.265Z,12.79
2023-01-02T10:01:28.656Z,12.57
2023-01-02T10:04:06.036Z,12.76
2023-01-02T10:06:38.809Z,12.86
2023-01-02T10:09:10.388Z,13.48
2023-01-02T10:11:44.126Z,13.52
2023-01-02T10:14:19.159Z,13.74
2023-01-02T10:16:50.766Z,13.55
2023-01-02T10:19:21.823Z,13.37
2023-01-02T10:21:52.157Z,13.60
2023-01-02T10:24:26.235Z,14.04
2023-01-02T10:26:54.760Z,13.51
2023-01-02T10:29:28.279Z,13.55
2023-01-02T10:31:58.907Z,13.48
2023-01-02T10:34:32.143Z,13.51
2023-01-02T10:37:04.495Z,13.93
2023-01-02T10:39:37.306Z,13.95
2023-01-02T10:42:06.755Z,14.33
2023-01-02T10:44:35.574Z,14.09
2023-01-02T10:47:12.926Z,14.65
2023-01-02T10:49:41.635Z,14.65
2023-01-02T10:52:14.441Z,14.30
2023-01-02T10:54:56.698Z,14.94
2023-01-02T10:57:34.138Z,15.37
2023-01-02T11:00:04.070Z,14.80
2023-01-02T11:02:33.026Z,15.10
2023-01-02T11:05:03.154Z,15.40
2023-01-02T11:07:33.552Z,14.94
2023-01-02T11:10:06.080Z,15.03
2023-01-02T11:12:47.299Z,14.95
2023-01-02T11:15:16.028Z,15.16
2023-01-02T11:17:45.202Z,15.07
2023-01-02T11:20:22.669Z,15.52
2023-01-02T11:22:50.832Z,15.88
2023-01-02T11:25:22.445Z,15.26
2023-01-02T11:27:53.887Z,15.57
2023-01-02T11:30:28.933Z,16.04
2023-01-02T11:33:08.099Z,16.17
2023-01-02T11:35:40.420Z,15.99
2023-01-02T11:38:17.461Z,15.42
2023-01-02T11:40:54.154Z,16.33
2023-01-02T11:43:41.942Z,16.25
2023-01-02T11:46:15.986Z,16.13
2023-01-02T11:48:44.161Z,15.97
2023-01-02T11:51:17.704Z,16.04
2023-01-02T11:53:47.458Z,15.80
2023-01-02T11:56:18.692Z,16.39
2023-01-02T11:58:50.234Z,16.15
2023-01-02T12:01:22.558Z,16.04
2023-01-02T12:03:51.054Z,16.45
2023-01-02T12:06:20.285Z,16.27
2023-01-02T12:08:57.853Z,16.42
2023-01-02T12:11:33.991Z,16.64
2023-01-02T12:14:02.461Z,16.63
2023-01-02T12:16:36.992Z,16.60
2023-01-02T12:19:16.293Z,16.74
2023-01-02T12:21:49.339Z,16.62
2023-01-02T12:24:28.157Z,16.47
2023-01-02T12:27:01.756Z,16.47
2023-01-02T12:29:46.237Z,16.23
2023-01-02T12:32:41.165Z,16.50
2023-01-02T12:35:18.807Z,16.35
2023-01-02T12:37:48.831Z,16.00
2023-01-02T12:40:24.036Z,15.78
2023-01-02T12:43:01.650Z,16.18
2023-01-02T12:45:34.817Z,16.46
2023-01-02T12:48:09.820Z,15.90
2023-01-02T12:50:49.251Z,16.19
2023-01-02T12:53:27.197Z,16.43
2023-01-02T12:56:05.243Z,15.90
2023-01-02T12:58:43.712Z,15.99
2023-01-02T13:01:18.483Z,16.09
2023-01-02T13:03:53.287Z,16.32
2023-01-02T13:06:45.278Z,16.00
2023-01-02T13:09:20.090Z,16.03
2023-01-02T13:11:53.857Z,16.08
2023-01-02T13:14:25.497Z,16.18
2023-01-02T13:16:58.521Z,15.76
2023-01-02T13:19:33.435Z,15.90
2023-01-02T13:22:09.605Z,15.92
2023-01-02T13:24:37.956Z,15.97
2023-01-02T13:27:06.146Z,15.74
2023-01-02T13:29:42.697Z,15.78
2023-01-02T13:32:12.038Z,15.45
2023-01-02T13:34:47.643Z,15.37
2023-01-02T13:37:18.435Z,15.47
2023-01-02T13:39:48.171Z,15.39
2023-01-02T13:42:42.428Z,15.46
2023-01-02T13:45:14.494Z,14.99
2023-01-02T13:47:48.176Z,15.19
2023-01-02T13:50:20.071Z,15.35
2023-01-02T13:52:57.630Z,15.10
2023-01-02T13:55:31.496Z,15.08
2023-01-02T13:58:18.633Z,14.97
2023-01-02T14:00:54.419Z,14.82
2023-01-02T14:03:41.462Z,14.63
2023-01-02T14:06:24.836Z,14.83
2023-01-02T14:09:07.793Z,15.00
2023-01-02T14:11:56.335Z,14.71
2023-01-02T14:14:34.702Z,14.67
2023-01-02T14:17:10.780Z,14.42
2023-01-02T14:19:39.495Z,14.83
2023-01-02T14:22:12.823Z,14.72
2023-01-02T14:24:42.376Z,14.88
2023-01-02T14:27:19.160Z,14.81
2023-01-02T14:29:52.788Z,14.44
2023-01-02T14:32:25.008Z,14.72
2023-01-02T14:34:55.509Z,14.67
2023-01-02T14:37:30.838Z,14.31
2023-01-02T14:40:10.019Z,14.29
2023-01-02T14:43:08.308Z,13.86
2023-01-02T14:45:41.581Z,14.21
2023-01-02T14:48:15.514Z,14.03
2023-01-02T14:50:45.017Z,13.97
2023-01-02T14:53:15.747Z,13.90
2023-01-02T14:55:44.304Z,13.80
2023-01-02T14:58:16.993Z,13.83
2023-01-02T15:00:47.603Z,13.84
2023-01-02T15:03:22.628Z,13.59
2023-01-02T15:05:54.143Z,13.82
2023-01-02T15:08:28.765Z,13.56
2023-01-02T15:11:23.136Z,13.52
2023-01-02T15:14:04.876Z,13.08
2023-01-02T15:16:42.675Z,13.16
2023-01-02T15:19:16.954Z,13.24
2023-01-02T15:21:45.080Z,13.14
2023-01-02T15:24:17.897Z,13.01
2023-01-02T15:26:45.948Z,12.95
2023-01-02T15:29:21.508Z,12.90
2023-01-02T15:31:52.119Z,12.85
2023-01-02T15:34:27.808Z,12.95
2023-01-02T15:36:56.481Z,12.65
2023-01-02T15:39:29.982Z,13.10
2023-01-02T15:42:00.716Z,12.89
2023-01-02T15:44:50.439Z,13.00
2023-01-02T15:47:25.467Z,13.16
2023-01-02T15:49:58.496Z,13.10
2023-01-02T15:52:27.669Z,13.37
2023-01-02T15:54:56.600Z,13.34
2023-01-02T15:57:26.836Z,13.24
2023-01-02T15:59:55.398Z,13.08
2023-01-02T16:02:36.301Z,13.22
2023-01-02T16:05:09.237Z,13.21
2023-01-02T16:07:38.794Z,13.15
2023-01-02T16:10:08.231Z,13.12
2023-01-02T16:12:36.398Z,13.01
2023-01-02T16:15:04.841Z,13.05
2023-01-02T16:17:34.310Z,13.13
2023-01-02T16:20:03.816Z,12.92
2023-01-02T16:22:36.753Z,12.93
2023-01-02T16:25:06.959Z,13.07
2023-01-02T16:27:38.622Z,12.85
2023-01-02T16:30:15.685Z,12.99
2023-01-02T16:32:47.789Z,12.76
2023-01-02T16:35:23.548Z,12.76
2023-01-02T16:37:56.393Z,12.96
2023-01-02T16:41:00.388Z,12.80
2023-01-02T16:43:31.161Z,12.81
2023-01-02T16:45:59.668Z,12.61
2023-01-02T16:48:29.923Z,12.79
2023-01-02T16:50:58.856Z,12.56
2023-01-02T16:53:29.489Z,12.82
2023-01-02T16:55:57.624Z,12.48
2023-01-02T16:58:26.220Z,12.72
2023-01-02T17:00:54.532Z,12.63
2023-01-02T17:03:23.798Z,12.69
2023-01-02T17:06:02.292Z,13.12
2023-01-02T17:08:32.530Z,12.95
2023-01-02T17:11:00.752Z,13.01
2023-01-02T17:13:29.366Z,12.96
2023-01-02T17:15:58.105Z,13.01
2023-01-02T17:18:26.394Z,12.70
2023-01-02T17:20:54.453Z,12.51
2023-01-02T17:23:22.611Z,12.15
2023-01-02T17:25:51.983Z,12.05
2023-01-02T17:28:20.148Z,12.00
2023-01-02T17:30:49.956Z,11.81
2023-01-02T17:33:20.394Z,11.68
2023-01-02T17:35:49.280Z,11.38
2023-01-02T17:38:17.691Z,11.20
2023-01-02T17:40:45.753Z,11.29
2023-01-02T17:43:17.495Z,11.19
2023-01-02T17:45:45.657Z,11.11
2023-01-02T17:48:17.322Z,11.05
2023-01-02T17:50:51.516Z,11.21
2023-01-02T17:53:19.895Z,10.99
2023-01-02T17:55:51.467Z,10.88
2023-01-02T17:58:42.101Z,10.77
2023-01-02T18:01:14.069Z,10.90
2023-01-02T18:03:42.299Z,10.80
2023-01-02T18:06:11.395Z,10.85
2023-01-02T18:08:39.449Z,10.89
2023-01-02T18:11:08.220Z,11.00
2023-01-02T18:13:40.944Z,10.76
2023-01-02T18:16:15.123Z,10.65
2023-01-02T18:18:43.770Z,10.67
2023-01-02T18:21:12.764Z,10.57
2023-01-02T18:23:41.121Z,10.44
2023-01-02T18:26:11.568Z,10.40
2023-01-02T18:28:41.364Z,10.23
2023-01-02T18:31:15.338Z,10.11
2023-01-02T18:33:43.545Z,9.91
2023-01-02T18:36:17.991Z,9.95
2023-01-02T18:38:46.134Z,9.88
2023-01-02T18:41:18.995Z,9.76
2023-01-02T18:43:49.540Z,9.74
2023-01-02T18:46:19.945Z,9.73
2023-01-02T18:48:48.305Z,9.48
2023-01-02T18:51:17.923Z,9.61
2023-01-02T18:53:47.547Z,9.53
2023-01-02T18:56:17.752Z,9.59
2023-01-02T18:58:51.476Z,9.73
2023-01-02T19:01:23.633Z,9.60
2023-01-02T19:03:56.601Z,9.81
2023-01-02T19:06:25.962Z,9.68
2023-01-02T19:09:02.769Z,9.64
2023-01-02T19:11:51.034Z,9.80
2023-01-02T19:14:20.336Z,9.60
2023-01-02T19:16:50.301Z,9.53
2023-01-02T19:19:21.745Z,9.61
2023-01-02T19:21:50.997Z,9.69
2023-01-02T19:24:19.989Z,9.59
2023-01-02T19:26:48.801Z,9.48
2023-01-02T19:29:19.460Z,9.62
2023-01-02T19:31:51.372Z,9.58
2023-01-02T19:34:31.092Z,9.69
2023-01-02T19:37:08.343Z,9.65
2023-01-02T19:39:38.261Z,9.59
2023-01-02T19:42:21.304Z,9.65
2023-01-02T19:44:50.413Z,9.63
2023-01-02T19:47:20.517Z,9.76
2023-01-02T19:49:49.033Z,9.72
2023-01-02T19:52:19.368Z,9.66
2023-01-02T19:54:49.039Z,9.70
2023-01-02T19:57:17.748Z,9.52
2023-01-02T19:59:48.974Z,9.61
2023-01-02T20:02:18.636Z,9.71
2023-01-02T20:04:49.642Z,9.80
2023-01-02T20:07:17.913Z,9.62
2023-01-02T20:09:46.032Z,9.69
2023-01-02T20:12:34.474Z,9.73
2023-01-02T20:15:06.196Z,9.70
2023-01-02T20:17:35.018Z,9.82
2023-01-02T20:20:07.448Z,9.68
2023-01-02T20:22:36.100Z,9.90
2023-01-02T20:25:04.723Z,9.79
2023-01-02T20:27:35.029Z,9.73
2023-01-02T20:30:04.125Z,9.83
2023-01-02T20:32:34.605Z,9.80
2023-01-02T20:35:02.654Z,9.63
2023-01-02T20:37:34.599Z,9.83
2023-01-02T20:40:02.647Z,9.84
2023-01-02T20:42:32.799Z,9.72
2023-01-02T20:45:00.989Z,9.86
2023-01-02T20:47:29.053Z,9.60
2023-01-02T20:49:57.109Z,9.82
2023-01-02T20:52:25.172Z,9.85
2023-01-02T20:54:54.636Z,9.52
2023-01-02T20:57:22.770Z,9.71
2023-01-02T20:59:50.964Z,9.67
2023-01-02T21:02:19.216Z,9.70
2023-01-02T21:04:47.415Z,9.59
2023-01-02T21:07:15.500Z,9.82
2023-01-02T21:09:43.501Z,9.64
2023-01-02T21:12:26.823Z,9.75
2023-01-02T21:14:57.150Z,9.90
2023-01-02T21:17:26.482Z,9.38
2023-01-02T21:19:54.543Z,9.63
2023-01-02T21:22:22.581Z,9.40
2023-01-02T21:24:50.560Z,9.64
2023-01-02T21:27:22.021Z,9.52
2023-01-02T21:29:50.004Z,9.65
2023-01-02T21:32:18.039Z,9.63
2023-01-02T21:34:48.143Z,9.62
2023-01-02T21:37:16.213Z,9.38
2023-01-02T21:39:44.894Z,9.58
2023-01-02T21:42:18.907Z,9.45
2023-01-02T21:44:48.525Z,9.56
2023-01-02T21:47:19.203Z,9.47
2023-01-02T21:49:47.292Z,9.54
2023-01-02T21:52:17.647Z,9.40
2023-01-02T21:54:46.133Z,9.52
2023-01-02T21:57:14.285Z,9.32
2023-01-02T22:02:39.109Z,9.29
2023-01-02T22:05:08.055Z,9.40
2023-01-02T22:07:40.790Z,9.40
2023-01-02T22:10:11.874Z,9.48
2023-01-02T22:12:40.936Z,9.40
2023-01-02T22:15:10.899Z,9.34
2023-01-02T22:17:40.304Z,9.25
2023-01-02T22:20:09.118Z,9.17
2023-01-02T22:22:37.231Z,9.22
2023-01-02T22:25:08.009Z,9.31
2023-01-02T22:27:38.615Z,9.25
2023-01-02T22:30:31.033Z,9.28
2023-01-02T22:32:57.373Z,9.38
2023-01-02T22:35:25.565Z,9.36
2023-01-02T22:37:53.626Z,9.42
2023-01-02T22:40:21.702Z,9.60
2023-01-02T22:43:10.091Z,9.61
2023-01-02T22:45:48.799Z,9.21
2023-01-02T22:48:20.419Z,9.30
2023-01-02T22:50:50.512Z,9.32
2023-01-02T22:53:23.547Z,9.39
2023-01-02T22:55:51.699Z,9.25
2023-01-02T22:58:22.789Z,9.20
2023-01-02T23:01:01.727Z,9.23
2023-01-02T23:03:33.113Z,9.21
2023-01-02T23:06:01.156Z,9.10
2023-01-02T23:08:29.286Z,9.45
2023-01-02T23:10:57.411Z,9.27
2023-01-02T23:13:25.444Z,8.96
2023-01-02T23:16:11.413Z,9.30
2023-01-02T23:18:58.890Z,9.51
2023-01-02T23:21:27.713Z,9.45
2023-01-02T23:23:56.169Z,9.41
2023-01-02T23:26:26.246Z,8.95
2023-01-02T23:29:09.973Z,9.23
2023-01-02T23:31:39.078Z,9.00
2023-01-02T23:34:08.590Z,9.34
2023-01-02T23:36:36.989Z,8.77
2023-01-02T23:39:05.513Z,8.53
2023-01-02T23:41:34.513Z,8.30
2023-01-02T23:44:03.053Z,8.28
2023-01-02T23:46:31.187Z,8.31
2023-01-02T23:48:59.647Z,8.21
2023-01-02T23:51:29.183Z,8.32
2023-01-02T23:53:57.950Z,8.38
2023-01-02T23:56:26.829Z,8.44
2023-01-02T23:58:55.969Z,8.71
